Time;durP1;ratioP1;P1;durP2;ratioP2;P2;SDS_P1;SDS_P2;PMS_P1;PMS_P2;Temp;Humidity;BMP_temperature;BMP_pressure;BME280_temperature;BME280_humidity;BME280_pressure;Samples;Min_cycle;Max_cycle;Signal;HPM_P1;HPM_P2
2023/03/12 00:01:18;;;;;;;6.30;3.00;;;;;;;-0.76;85.99;99988.45;105514;1252;72683;-60
2023/03/12 00:03:48;;;;;;;5.60;2.40;;;;;;;-0.76;85.87;99988.98;105652;1256;69198;-60
2023/03/12 00:06:18;;;;;;;4.40;2.40;;;;;;;-0.77;85.92;99987.08;105610;1256;69092;-61
2023/03/12 00:08:47;;;;;;;12.90;3.10;;;;;;;-0.79;85.78;99989.48;105582;1251;75062;-61
2023/03/12 00:11:17;;;;;;;6.60;3.40;;;;;;;-0.81;85.76;99988.78;105647;1254;83790;-61
2023/03/12 00:13:53;;;;;;;4.60;2.50;;;;;;;-0.82;85.66;99988.27;105608;1251;72745;-60
2023/03/12 00:16:22;;;;;;;5.80;2.60;;;;;;;-0.79;85.47;99988.27;105907;1251;69210;-62
2023/03/12 00:18:52;;;;;;;9.50;2.40;;;;;;;-0.78;85.53;99984.32;105676;1254;69231;-61
2023/03/12 00:21:21;;;;;;;5.00;2.50;;;;;;;-0.78;85.49;99982.79;105623;1257;74576;-62
2023/03/12 00:23:50;;;;;;;7.30;2.80;;;;;;;-0.78;85.50;99985.70;105604;1251;83442;-61
2023/03/12 00:26:20;;;;;;;6.10;3.00;;;;;;;-0.77;85.73;99980.22;105908;1256;72251;-61
2023/03/12 00:28:49;;;;;;;5.40;2.20;;;;;;;-0.77;85.72;99979.53;105518;1251;69118;-61
2023/03/12 00:31:20;;;;;;;6.80;2.40;;;;;;;-0.78;85.53;99980.39;105917;1255;69213;-62
2023/03/12 00:33:49;;;;;;;6.10;2.00;;;;;;;-0.80;85.58;99973.35;105589;1251;75017;-62
2023/03/12 00:36:18;;;;;;;5.10;2.20;;;;;;;-0.78;85.38;99974.38;105491;1251;83378;-62
2023/03/12 00:38:46;;;;;;;6.00;2.00;;;;;;;-0.76;85.20;99968.39;105577;1255;72729;-62
2023/03/12 00:41:15;;;;;;;4.20;1.80;;;;;;;-0.74;85.14;99969.24;105496;1256;69122;-61
2023/03/12 00:43:43;;;;;;;3.10;1.70;;;;;;;-0.73;85.38;99967.52;105596;1256;69119;-61
2023/03/12 00:46:11;;;;;;;4.10;1.70;;;;;;;-0.73;85.29;99971.30;105602;1256;74859;-61
2023/03/12 00:48:40;;;;;;;4.90;2.20;;;;;;;-0.72;85.32;99974.05;105511;1256;83336;-61
2023/03/12 00:51:08;;;;;;;5.60;1.90;;;;;;;-0.72;85.18;99976.63;105649;1255;73925;-61
2023/03/12 00:53:37;;;;;;;6.20;2.00;;;;;;;-0.73;85.11;99984.51;105703;1257;69098;-61
2023/03/12 00:56:06;;;;;;;3.40;1.60;;;;;;;-0.71;84.87;99980.06;105621;1251;69084;-61
2023/03/12 00:58:34;;;;;;;9.20;1.80;;;;;;;-0.67;84.58;99977.50;105518;1258;73969;-62
2023/03/12 01:01:04;;;;;;;2.50;1.30;;;;;;;-0.64;84.48;99973.73;105522;1257;83171;-61
2023/03/12 01:03:32;;;;;;;3.50;1.40;;;;;;;-0.63;84.48;99974.41;105565;1257;73908;-61
2023/03/12 01:06:01;;;;;;;4.00;1.70;;;;;;;-0.62;84.47;99975.10;105552;1253;69213;-61
2023/03/12 01:08:29;;;;;;;4.20;1.70;;;;;;;-0.62;84.54;99978.01;105538;1252;69223;-61
2023/03/12 01:10:57;;;;;;;4.20;2.10;;;;;;;-0.62;84.40;99979.04;105461;1257;73645;-62
2023/03/12 01:13:25;;;;;;;3.00;1.40;;;;;;;-0.61;84.27;99978.36;105566;1251;82307;-62
2023/03/12 01:15:53;;;;;;;4.70;1.60;;;;;;;-0.57;83.98;99982.15;105515;1256;73782;-62
2023/03/12 01:18:22;;;;;;;4.50;1.60;;;;;;;-0.54;83.72;99977.16;105675;1257;69183;-62
2023/03/12 01:20:50;;;;;;;6.20;1.50;;;;;;;-0.53;83.67;99980.59;105638;1257;69525;-62
2023/03/12 01:23:18;;;;;;;2.80;1.40;;;;;;;-0.53;83.68;99986.27;105578;1256;74349;-62
2023/03/12 01:25:47;;;;;;;3.30;1.50;;;;;;;-0.51;83.81;99978.02;105522;1251;82516;-62
2023/03/12 01:28:15;;;;;;;7.90;2.10;;;;;;;-0.52;83.86;99976.48;105526;1256;71757;-62
2023/03/12 01:30:44;;;;;;;3.90;1.70;;;;;;;-0.54;83.70;99983.70;105581;1251;69124;-62
2023/03/12 01:33:12;;;;;;;6.40;2.30;;;;;;;-0.56;83.54;99979.39;105657;1251;69192;-61
2023/03/12 01:35:40;;;;;;;10.00;1.80;;;;;;;-0.58;83.50;99983.69;105483;1256;73130;-62
2023/03/12 01:38:14;;;;;;;4.60;1.90;;;;;;;-0.57;83.37;99983.70;105635;1251;82496;-62
2023/03/12 01:40:43;;;;;;;5.10;1.80;;;;;;;-0.55;83.06;99984.20;105694;1255;73659;-62
2023/03/12 01:43:26;;;;;;;4.90;1.70;;;;;;;-0.56;83.22;99978.88;105622;1251;69088;-62
2023/03/12 01:45:58;;;;;;;5.70;1.50;;;;;;;-0.57;83.22;99986.09;105895;1251;69179;-62
2023/03/12 01:48:40;;;;;;;5.80;1.60;;;;;;;-0.57;83.24;99986.43;105673;1256;73872;-62
2023/03/12 01:51:11;;;;;;;5.00;1.70;;;;;;;-0.57;83.12;99991.75;105618;1251;82402;-62
2023/03/12 01:53:42;;;;;;;3.40;1.40;;;;;;;-0.57;83.00;99996.20;105571;1251;73756;-62
2023/03/12 01:56:10;;;;;;;;;;;;;;;-0.57;82.89;99997.76;105467;1257;69141;-62
2023/03/12 01:58:42;;;;;;;6.50;1.50;;;;;;;-0.54;82.50;99995.36;105508;1257;69116;-62
2023/03/12 02:01:10;;;;;;;3.70;1.10;;;;;;;-0.51;82.49;99996.91;105578;1256;73865;-62
2023/03/12 02:03:38;;;;;;;3.50;1.40;;;;;;;-0.51;82.49;99998.96;105724;1256;83441;-62
2023/03/12 02:06:12;;;;;;;7.00;1.60;;;;;;;-0.52;82.61;100000.86;105478;1258;71900;-62
2023/03/12 02:08:43;;;;;;;3.30;1.70;;;;;;;-0.50;82.59;99998.80;105663;1256;69113;-62
2023/03/12 02:11:13;;;;;;;2.90;1.30;;;;;;;-0.49;82.59;100001.21;105898;1257;69243;-62
2023/03/12 02:13:41;;;;;;;5.60;1.50;;;;;;;-0.50;82.36;99997.25;105615;1257;73663;-62
2023/03/12 02:16:10;;;;;;;3.90;1.50;;;;;;;-0.52;82.36;99998.11;105609;1251;83526;-62
2023/03/12 02:18:38;;;;;;;4.40;1.50;;;;;;;-0.52;82.23;100001.04;105586;1255;73627;-62
2023/03/12 02:21:27;;;;;;;4.00;1.60;;;;;;;-0.54;82.36;100002.21;105576;1258;69118;-62
2023/03/12 02:24:06;;;;;;;4.00;1.40;;;;;;;-0.54;82.04;100003.25;105672;1254;69236;-62
2023/03/12 02:26:36;;;;;;;5.00;1.40;;;;;;;-0.51;81.94;100000.69;105437;1258;73901;-62
2023/03/12 02:29:06;;;;;;;3.20;1.40;;;;;;;-0.49;81.69;99998.45;105517;1257;82639;-62
2023/03/12 02:31:40;;;;;;;2.80;1.20;;;;;;;-0.49;81.66;100004.29;105586;1256;71982;-62
2023/03/12 02:34:09;;;;;;;4.20;1.50;;;;;;;-0.48;81.65;100009.44;105571;1256;69186;-62
2023/03/12 02:36:37;;;;;;;4.30;1.90;;;;;;;-0.47;81.68;100012.02;105569;1251;69124;-62
2023/03/12 02:39:05;;;;;;;3.20;1.90;;;;;;;-0.48;81.62;100017.85;105569;1251;74926;-62
2023/03/12 02:41:39;;;;;;;6.80;2.70;;;;;;;-0.50;81.46;100019.92;105665;1256;83515;-62
2023/03/12 02:44:18;;;;;;;4.40;2.00;;;;;;;-0.50;81.41;100010.11;105915;1256;72721;-62
2023/03/12 02:46:51;;;;;;;5.10;1.20;;;;;;;-0.50;81.33;100014.59;105589;1256;69202;-62
2023/03/12 02:49:21;;;;;;;4.00;1.60;;;;;;;-0.45;81.06;100012.19;105756;1251;69150;-62
2023/03/12 02:51:49;;;;;;;5.50;1.50;;;;;;;-0.42;80.92;100012.20;105518;1251;74970;-62
2023/03/12 02:54:19;;;;;;;3.40;1.20;;;;;;;-0.39;80.75;100018.21;105608;1251;82392;-62
2023/03/12 02:56:49;;;;;;;5.60;2.10;;;;;;;-0.36;81.14;100024.04;105600;1251;73936;-62
2023/03/12 02:59:20;;;;;;;6.30;2.20;;;;;;;-0.34;80.94;100020.45;105572;1256;69154;-62
2023/03/12 03:01:56;;;;;;;2.90;1.50;;;;;;;-0.35;80.97;100021.48;105570;1256;70583;-62
2023/03/12 03:04:26;;;;;;;5.80;1.80;;;;;;;-0.35;80.76;100020.27;105681;1257;74040;-62
2023/03/12 03:06:55;;;;;;;4.40;1.40;;;;;;;-0.34;80.81;100024.56;105652;1251;82791;-62
2023/03/12 03:09:24;;;;;;;5.30;1.50;;;;;;;-0.34;80.80;100025.42;105804;1257;72824;-62
2023/03/12 03:11:53;;;;;;;4.60;1.60;;;;;;;-0.36;80.69;100031.62;105606;1251;69175;-62
2023/03/12 03:14:22;;;;;;;3.60;1.70;;;;;;;-0.37;80.49;100030.91;105829;1251;69136;-62
2023/03/12 03:16:50;;;;;;;5.10;1.60;;;;;;;-0.37;80.53;100037.61;105600;1251;73979;-62
2023/03/12 03:19:20;;;;;;;6.40;1.30;;;;;;;-0.33;80.28;100035.39;105675;1257;83165;-62
2023/03/12 03:21:48;;;;;;;2.60;1.20;;;;;;;-0.30;80.25;100041.92;105580;1251;73487;-62
2023/03/12 03:24:17;;;;;;;6.10;1.50;;;;;;;-0.30;80.13;100041.40;105541;1251;69082;-62
2023/03/12 03:26:45;;;;;;;7.70;1.80;;;;;;;-0.32;80.41;100049.13;105673;1251;69115;-61
2023/03/12 03:29:14;;;;;;;2.70;1.20;;;;;;;-0.32;80.46;100052.21;105604;1256;73975;-64
2023/03/12 03:31:42;;;;;;;5.00;1.40;;;;;;;-0.33;80.49;100050.15;105823;1251;84197;-61
2023/03/12 03:34:11;;;;;;;3.80;1.60;;;;;;;-0.34;80.48;100049.46;105610;1251;73852;-61
2023/03/12 03:36:39;;;;;;;3.60;1.50;;;;;;;-0.35;80.20;100052.55;105623;1257;69111;-61
2023/03/12 03:39:11;;;;;;;4.60;1.30;;;;;;;-0.36;80.33;100053.75;105615;1256;69116;-62
2023/03/12 03:41:40;;;;;;;3.10;1.50;;;;;;;-0.37;80.23;100055.98;105684;1258;74801;-60
2023/03/12 03:44:09;;;;;;;4.50;2.00;;;;;;;-0.39;80.29;100059.92;105682;1251;83941;-63
2023/03/12 03:46:38;;;;;;;5.80;1.80;;;;;;;-0.40;80.35;100065.59;105652;1251;72150;-61
2023/03/12 03:49:10;;;;;;;3.70;1.30;;;;;;;-0.38;80.27;100065.77;105806;1257;69709;-61
2023/03/12 03:51:43;;;;;;;3.80;1.30;;;;;;;-0.33;80.13;100064.57;105625;1251;69033;-61
2023/03/12 03:54:14;;;;;;;2.40;1.10;;;;;;;-0.30;80.01;100067.83;105778;1251;75012;-61
2023/03/12 03:56:43;;;;;;;4.00;1.70;;;;;;;-0.29;80.01;100071.79;105600;1251;83499;-61
2023/03/12 03:59:12;;;;;;;3.90;1.50;;;;;;;-0.29;79.82;100071.79;105650;1251;73634;-61
2023/03/12 04:01:41;;;;;;;4.30;1.70;;;;;;;-0.29;79.87;100075.40;105604;1256;69169;-61
2023/03/12 04:04:10;;;;;;;3.00;1.50;;;;;;;-0.31;79.90;100076.25;105913;1255;69781;-59
2023/03/12 04:06:38;;;;;;;4.10;1.50;;;;;;;-0.34;79.81;100081.56;105585;1254;75111;-59
2023/03/12 04:09:07;;;;;;;6.40;1.70;;;;;;;-0.36;79.84;100081.91;105757;1251;83604;-59
2023/03/12 04:11:36;;;;;;;7.60;1.50;;;;;;;-0.40;79.84;100089.80;105423;1254;73819;-59
2023/03/12 04:14:06;;;;;;;4.50;1.70;;;;;;;-0.44;79.86;100094.08;105618;1251;69146;-59
2023/03/12 04:16:34;;;;;;;5.30;2.00;;;;;;;-0.49;79.76;100100.77;105599;1251;69209;-59
2023/03/12 04:19:03;;;;;;;4.60;1.50;;;;;;;-0.50;79.58;100108.66;105616;1251;74521;-59
2023/03/12 04:21:32;;;;;;;3.20;1.50;;;;;;;-0.49;79.64;100105.05;105473;1257;82224;-59
2023/03/12 04:24:00;;;;;;;4.70;1.60;;;;;;;-0.49;79.57;100109.67;105542;1253;73862;-59
2023/03/12 04:26:31;;;;;;;3.40;1.60;;;;;;;-0.51;79.68;100105.55;105527;1251;69164;-59
2023/03/12 04:29:00;;;;;;;5.50;1.80;;;;;;;-0.54;79.89;100100.23;105596;1251;69065;-59
2023/03/12 04:31:29;;;;;;;9.10;2.10;;;;;;;-0.56;79.74;100103.48;105611;1256;73693;-59
2023/03/12 04:33:57;;;;;;;3.90;2.00;;;;;;;-0.59;79.71;100104.49;105571;1256;84042;-59
2023/03/12 04:36:26;;;;;;;5.30;2.00;;;;;;;-0.61;79.84;100112.22;105521;1257;72021;-58
2023/03/12 04:38:55;;;;;;;6.70;2.30;;;;;;;-0.62;79.90;100105.34;105605;1255;69076;-59
2023/03/12 04:41:28;;;;;;;4.80;1.90;;;;;;;-0.64;79.80;100105.67;105584;1257;69125;-58
2023/03/12 04:44:15;;;;;;;4.30;1.80;;;;;;;-0.68;79.88;100106.02;105585;1251;74915;-59
2023/03/12 04:46:43;;;;;;;5.90;1.90;;;;;;;-0.69;79.77;100100.70;105456;1256;83183;-59
2023/03/12 04:49:14;;;;;;;4.50;1.80;;;;;;;-0.69;79.80;100108.23;105571;1251;73907;-59
2023/03/12 04:51:43;;;;;;;6.70;2.20;;;;;;;-0.68;79.72;100111.50;105600;1251;69077;-59
2023/03/12 04:54:11;;;;;;;8.00;2.00;;;;;;;-0.69;79.83;100108.58;105608;1251;69096;-59
2023/03/12 04:56:40;;;;;;;7.90;2.30;;;;;;;-0.71;79.72;100109.60;105589;1251;73553;-59
2023/03/12 04:59:09;;;;;;;4.70;2.40;;;;;;;-0.74;79.80;100112.52;105649;1251;81453;-59
2023/03/12 05:01:37;;;;;;;3.90;2.10;;;;;;;-0.77;79.89;100115.40;105749;1254;73614;-59
2023/03/12 05:04:10;;;;;;;4.70;1.70;;;;;;;-0.80;80.02;100128.77;105678;1251;69195;-59
2023/03/12 05:06:39;;;;;;;5.00;2.10;;;;;;;-0.83;80.09;100138.71;105614;1256;69137;-58
2023/03/12 05:09:07;;;;;;;6.30;2.00;;;;;;;-0.86;79.98;100135.42;105546;1256;73101;-58
2023/03/12 05:11:35;;;;;;;5.40;1.90;;;;;;;-0.88;80.06;100137.48;105726;1251;83319;-59
2023/03/12 05:14:10;;;;;;;7.20;2.00;;;;;;;-0.87;80.07;100139.20;105523;1251;73742;-59
2023/03/12 05:16:38;;;;;;;6.50;1.60;;;;;;;-0.88;79.92;100134.91;105443;1255;69316;-59
2023/03/12 05:19:07;;;;;;;4.40;2.10;;;;;;;-0.87;80.01;100135.77;105540;1251;69170;-59
2023/03/12 05:21:35;;;;;;;3.70;1.50;;;;;;;-0.91;80.12;100137.12;105606;1255;74902;-59
2023/03/12 05:24:04;;;;;;;6.80;2.20;;;;;;;-0.92;80.20;100142.77;105755;1256;83325;-59
2023/03/12 05:26:33;;;;;;;6.20;2.00;;;;;;;-0.93;80.18;100147.92;105623;1251;73854;-59
2023/03/12 05:29:14;;;;;;;6.60;2.20;;;;;;;-0.94;80.30;100144.66;105722;1256;69181;-59
2023/03/12 05:31:43;;;;;;;3.80;1.80;;;;;;;-0.95;80.44;100147.55;105706;1251;69201;-59
2023/03/12 05:34:12;;;;;;;4.50;1.70;;;;;;;-0.96;80.40;100144.64;105582;1256;72999;-59
2023/03/12 05:36:42;;;;;;;4.30;1.70;;;;;;;-0.93;80.42;100145.34;105553;1251;82614;-59
2023/03/12 05:39:11;;;;;;;6.30;2.00;;;;;;;-0.91;80.37;100146.56;105658;1251;72620;-59
2023/03/12 05:41:40;;;;;;;13.60;4.20;;;;;;;-0.89;80.44;100153.25;105785;1251;69170;-61
2023/03/12 05:44:16;;;;;;;5.10;3.10;;;;;;;-0.86;80.41;100151.38;105567;1251;69170;-60
2023/03/12 05:46:48;;;;;;;7.10;2.40;;;;;;;-0.85;80.60;100154.48;105615;1255;73086;-60
2023/03/12 05:49:16;;;;;;;6.90;3.20;;;;;;;-0.84;80.56;100160.14;105647;1255;83677;-59
2023/03/12 05:51:47;;;;;;;6.80;3.30;;;;;;;-0.83;80.65;100164.27;105541;1256;73880;-60
2023/03/12 05:54:16;;;;;;;8.00;4.20;;;;;;;-0.81;80.74;100168.91;105676;1251;69166;-59
2023/03/12 05:56:47;;;;;;;9.40;5.10;;;;;;;-0.80;80.65;100163.42;105652;1254;69831;-58
2023/03/12 05:59:15;;;;;;;8.70;3.10;;;;;;;-0.81;80.63;100164.11;105589;1256;75086;-58
2023/03/12 06:01:44;;;;;;;5.20;2.90;;;;;;;-0.79;80.64;100166.34;105585;1250;84408;-58
2023/03/12 06:04:12;;;;;;;7.90;2.20;;;;;;;-0.77;80.65;100165.16;105640;1256;73589;-58
2023/03/12 06:06:40;;;;;;;3.70;1.70;;;;;;;-0.73;80.53;100170.15;105567;1256;69503;-60
2023/03/12 06:09:10;;;;;;;5.10;2.00;;;;;;;-0.70;80.51;100177.73;105603;1255;69174;-58
2023/03/12 06:11:39;;;;;;;2.90;2.10;;;;;;;-0.67;80.70;100174.99;105513;1254;73639;-58
2023/03/12 06:14:07;;;;;;;3.80;1.80;;;;;;;-0.64;80.84;100178.26;105586;1251;83593;-58
2023/03/12 06:16:36;;;;;;;6.00;2.10;;;;;;;-0.61;80.81;100180.16;105907;1253;74037;-58
2023/03/12 06:19:06;;;;;;;3.40;2.10;;;;;;;-0.59;80.76;100183.27;105587;1254;69205;-58
2023/03/12 06:21:35;;;;;;;5.10;2.30;;;;;;;-0.56;80.89;100188.42;105691;1254;69166;-58
2023/03/12 06:24:05;;;;;;;5.50;1.90;;;;;;;-0.55;80.91;100192.38;105882;1253;73881;-58
2023/03/12 06:26:46;;;;;;;4.00;1.60;;;;;;;-0.52;80.71;100202.00;105542;1254;81818;-61
2023/03/12 06:29:14;;;;;;;7.50;2.60;;;;;;;-0.48;80.53;100203.75;105552;1254;72667;-58
2023/03/12 06:31:42;;;;;;;6.10;2.00;;;;;;;-0.44;80.55;100203.76;105402;1254;69066;-59
2023/03/12 06:34:11;;;;;;;3.60;1.90;;;;;;;-0.40;80.56;100206.00;105868;1256;69211;-58
2023/03/12 06:36:39;;;;;;;4.40;2.00;;;;;;;-0.37;80.49;100214.60;105586;1256;73987;-59
2023/03/12 06:39:08;;;;;;;4.90;2.10;;;;;;;-0.35;80.50;100222.00;105799;1256;83594;-58
2023/03/12 06:41:37;;;;;;;4.70;1.90;;;;;;;-0.33;80.53;100220.12;106082;1253;73499;-59
2023/03/12 06:44:06;;;;;;;5.10;1.90;;;;;;;-0.31;80.54;100217.55;105776;1256;69173;-58
2023/03/12 06:46:34;;;;;;;4.30;1.70;;;;;;;-0.29;80.42;100225.64;105608;1254;69100;-58
2023/03/12 06:49:02;;;;;;;7.40;1.80;;;;;;;-0.27;80.47;100230.11;105545;1254;74943;-58
2023/03/12 06:51:31;;;;;;;4.00;1.60;;;;;;;-0.21;80.40;100228.41;105675;1254;82530;-58
2023/03/12 06:54:01;;;;;;;4.40;1.60;;;;;;;-0.17;80.31;100236.49;105595;1253;73868;-58
2023/03/12 06:56:30;;;;;;;7.60;2.20;;;;;;;-0.13;80.30;100237.71;105656;1256;69083;-59
2023/03/12 06:58:58;;;;;;;6.50;2.10;;;;;;;-0.11;80.49;100239.95;106007;1257;69528;-59
2023/03/12 07:01:27;;;;;;;7.80;2.20;;;;;;;-0.07;80.41;100249.07;105739;1256;74331;-59
2023/03/12 07:03:55;;;;;;;5.50;2.20;;;;;;;-0.04;80.56;100249.42;105609;1254;82498;-59
2023/03/12 07:06:23;;;;;;;4.30;1.70;;;;;;;-0.02;80.39;100249.44;105657;1254;72473;-59
2023/03/12 07:08:51;;;;;;;4.30;2.20;;;;;;;0.00;80.33;100250.14;105796;1254;69048;-59
2023/03/12 07:11:20;;;;;;;4.90;2.10;;;;;;;0.04;80.46;100250.14;105607;1252;69033;-60
2023/03/12 07:13:48;;;;;;;5.30;2.10;;;;;;;0.06;80.33;100256.49;105760;1254;74778;-60
2023/03/12 07:16:16;;;;;;;5.80;2.10;;;;;;;0.10;80.11;100255.14;105545;1252;83451;-60
2023/03/12 07:18:44;;;;;;;6.40;1.90;;;;;;;0.14;80.10;100266.33;105709;1257;73906;-59
2023/03/12 07:21:15;;;;;;;4.50;2.00;;;;;;;0.17;80.03;100264.45;105395;1254;69476;-59
2023/03/12 07:23:43;;;;;;;6.70;2.20;;;;;;;0.21;80.25;100262.06;105620;1252;69179;-59
2023/03/12 07:26:11;;;;;;;5.80;2.30;;;;;;;0.26;80.35;100271.00;105630;1256;75064;-59
2023/03/12 07:28:40;;;;;;;4.50;2.00;;;;;;;0.30;80.28;100268.60;105592;1254;82472;-60
2023/03/12 07:31:08;;;;;;;6.20;2.50;;;;;;;0.32;80.15;100267.40;105962;1256;73129;-59
2023/03/12 07:33:37;;;;;;;7.00;2.30;;;;;;;0.35;80.15;100268.96;105772;1252;69259;-59
2023/03/12 07:36:06;;;;;;;3.20;1.70;;;;;;;0.39;80.18;100273.95;105706;1256;69109;-59
2023/03/12 07:38:34;;;;;;;4.00;1.70;;;;;;;0.46;80.19;100272.93;105782;1254;74995;-59
2023/03/12 07:41:03;;;;;;;8.10;2.30;;;;;;;0.53;80.20;100271.58;105482;1257;83695;-59
2023/03/12 07:43:31;;;;;;;6.90;1.90;;;;;;;0.59;80.23;100278.80;105568;1257;72748;-60
2023/03/12 07:46:00;;;;;;;5.20;2.10;;;;;;;0.66;80.23;100275.21;105629;1254;69169;-60
2023/03/12 07:48:28;;;;;;;6.60;2.30;;;;;;;0.72;80.45;100275.21;105649;1254;69190;-60
2023/03/12 07:50:56;;;;;;;6.30;1.90;;;;;;;0.79;80.60;100276.59;105567;1256;74271;-61
2023/03/12 07:53:24;;;;;;;4.80;2.30;;;;;;;0.85;80.58;100275.23;105595;1256;83541;-61
2023/03/12 07:55:53;;;;;;;7.20;2.30;;;;;;;0.89;80.29;100277.46;105579;1254;74171;-58
2023/03/12 07:58:22;;;;;;;3.90;1.80;;;;;;;0.92;80.22;100277.29;105684;1256;69186;-61
2023/03/12 08:00:52;;;;;;;6.80;2.30;;;;;;;0.97;80.35;100279.54;105739;1251;69163;-59
2023/03/12 08:03:20;;;;;;;3.80;1.90;;;;;;;1.00;79.86;100280.73;105986;1254;73905;-60
2023/03/12 08:06:00;;;;;;;4.20;1.80;;;;;;;1.05;79.90;100281.95;105806;1251;82605;-60
2023/03/12 08:08:30;;;;;;;5.30;2.00;;;;;;;1.16;79.94;100282.80;105819;1253;72757;-60
2023/03/12 08:11:00;;;;;;;4.30;1.90;;;;;;;1.24;80.12;100282.97;105915;1254;69206;-62
2023/03/12 08:13:28;;;;;;;4.20;1.90;;;;;;;1.32;80.08;100283.81;105806;1254;69282;-63
2023/03/12 08:15:57;;;;;;;7.60;2.30;;;;;;;1.41;80.15;100284.66;105653;1251;75017;-63
2023/03/12 08:18:26;;;;;;;7.20;2.80;;;;;;;1.48;80.00;100289.13;105794;1251;83581;-63
2023/03/12 08:20:54;;;;;;;4.80;2.80;;;;;;;1.51;79.75;100288.44;105750;1251;73660;-64
2023/03/12 08:23:22;;;;;;;6.70;2.00;;;;;;;1.55;79.81;100285.84;105689;1251;69183;-64
2023/03/12 08:25:51;;;;;;;6.30;2.20;;;;;;;1.62;79.92;100287.20;105809;1251;68998;-63
2023/03/12 08:28:22;;;;;;;5.40;2.50;;;;;;;1.67;79.76;100294.42;105887;1256;75184;-64
2023/03/12 08:30:55;;;;;;;4.50;1.90;;;;;;;1.75;79.91;100292.86;106083;1253;83332;-64
2023/03/12 08:33:23;;;;;;;6.20;2.60;;;;;;;1.80;79.65;100291.29;105783;1254;73737;-64
2023/03/12 08:35:51;;;;;;;5.90;2.40;;;;;;;1.86;79.33;100294.20;105600;1253;69000;-64
2023/03/12 08:38:20;;;;;;;4.80;1.80;;;;;;;1.93;79.14;100289.17;105594;1257;69314;-64
2023/03/12 08:40:58;;;;;;;7.00;2.10;;;;;;;2.01;79.22;100292.60;105634;1255;75116;-64
2023/03/12 08:43:27;;;;;;;6.70;1.90;;;;;;;2.12;79.35;100292.55;105640;1253;83428;-64
2023/03/12 08:45:58;;;;;;;6.40;2.10;;;;;;;2.25;79.50;100288.52;105674;1256;107761;-62
2023/03/12 08:48:29;;;;;;;6.50;1.90;;;;;;;2.38;79.17;100288.80;105645;1253;69211;-62
2023/03/12 08:51:02;;;;;;;5.90;1.70;;;;;;;2.49;79.08;100290.80;105731;1253;69395;-63
2023/03/12 08:53:33;;;;;;;4.10;1.90;;;;;;;2.58;78.72;100293.17;105598;1252;74586;-62
2023/03/12 08:56:02;;;;;;;4.10;1.90;;;;;;;2.61;78.31;100293.33;105573;1255;83355;-63
2023/03/12 08:58:30;;;;;;;7.80;2.50;;;;;;;2.68;78.53;100298.45;105956;1254;72739;-63
2023/03/12 09:00:59;;;;;;;6.40;1.90;;;;;;;2.79;78.40;100301.15;105643;1253;69198;-63
2023/03/12 09:03:27;;;;;;;4.20;2.00;;;;;;;2.90;78.36;100303.48;105935;1256;69116;-63
2023/03/12 09:06:11;;;;;;;8.00;2.20;;;;;;;3.01;78.12;100292.52;105601;1254;73873;-62
2023/03/12 09:08:40;;;;;;;3.40;1.60;;;;;;;3.20;78.14;100296.35;105704;1256;83354;-63
2023/03/12 09:11:10;;;;;;;5.50;1.80;;;;;;;3.36;77.59;100295.34;105675;1254;73640;-63
2023/03/12 09:13:40;;;;;;;3.70;1.50;;;;;;;3.56;77.67;100297.55;105865;1257;69950;-63
2023/03/12 09:16:28;;;;;;;3.60;1.50;;;;;;;3.64;76.70;100301.11;105582;1256;69957;-63
2023/03/12 09:18:57;;;;;;;4.80;1.70;;;;;;;3.60;76.50;100300.63;105783;1254;75064;-63
2023/03/12 09:21:25;;;;;;;4.40;1.40;;;;;;;3.63;76.17;100301.83;105606;1256;83401;-67
2023/03/12 09:23:53;;;;;;;3.30;1.50;;;;;;;3.61;75.69;100296.83;105574;1254;73874;-67
2023/03/12 09:26:21;;;;;;;3.90;1.60;;;;;;;3.65;75.38;100296.61;105793;1254;69100;-66
2023/03/12 09:28:49;;;;;;;4.50;1.60;;;;;;;3.75;75.29;100295.47;105578;1254;69196;-66
2023/03/12 09:31:18;;;;;;;3.50;1.20;;;;;;;3.85;75.26;100297.77;105638;1254;74915;-71
2023/03/12 09:33:46;;;;;;;7.30;1.50;;;;;;;3.97;74.87;100299.02;105605;1254;82863;-66
2023/03/12 09:36:14;;;;;;;4.70;1.40;;;;;;;4.11;74.42;100299.20;105635;1254;74090;-66
2023/03/12 09:38:43;;;;;;;6.10;2.00;;;;;;;4.24;74.16;100299.04;105663;1254;69166;-65
2023/03/12 09:41:18;;;;;;;5.10;1.30;;;;;;;4.26;73.57;100301.24;105563;1253;69117;-67
2023/03/12 09:44:21;;;;;;;4.40;1.70;;;;;;;4.30;73.28;100301.40;105698;1256;74895;-66
2023/03/12 09:46:53;;;;;;;3.20;1.20;;;;;;;4.44;72.85;100304.33;105842;1256;83179;-62
2023/03/12 09:49:39;;;;;;;3.00;1.20;;;;;;;4.64;72.98;100301.95;105669;1255;73900;-69
2023/03/12 09:52:30;;;;;;;4.10;1.10;;;;;;;4.92;72.89;100307.27;105531;1257;69306;-69
2023/03/12 09:55:03;;;;;;;;;;;;;;;5.11;72.30;100304.02;105692;1254;69930;-64
2023/03/12 09:57:31;;;;;;;3.10;1.30;;;;;;;5.27;72.06;100302.38;105610;1254;74558;-67
2023/03/12 09:59:59;;;;;;;5.00;1.30;;;;;;;5.39;71.80;100297.98;105657;1256;83626;-65
2023/03/12 10:03:00;;;;;;;3.30;1.00;;;;;;;5.52;71.30;100306.27;106014;1252;73445;-64
2023/03/12 10:06:06;;;;;;;5.00;1.10;;;;;;;5.69;70.94;100306.65;105726;1254;69226;-64
2023/03/12 10:08:45;;;;;;;4.30;1.30;;;;;;;5.71;70.08;100302.28;105587;1256;69157;-63
2023/03/12 10:11:31;;;;;;;4.30;1.30;;;;;;;5.89;70.39;100298.15;106062;1254;74464;-63
2023/03/12 10:14:07;;;;;;;6.10;1.20;;;;;;;6.20;70.90;100301.19;105709;1256;83478;-63
2023/03/12 10:16:48;;;;;;;3.10;1.30;;;;;;;6.27;69.74;100299.13;105754;1253;73652;-62
2023/03/12 10:19:38;;;;;;;4.80;1.80;;;;;;;6.37;69.41;100301.70;105749;1252;69189;-62
2023/03/12 10:22:22;;;;;;;2.60;1.10;;;;;;;6.52;68.99;100297.73;105691;1254;69212;-65
2023/03/12 10:25:12;;;;;;;2.50;1.10;;;;;;;6.74;69.03;100301.23;105490;1254;74239;-64
2023/03/12 10:27:41;;;;;;;4.50;1.80;;;;;;;7.17;69.23;100294.12;105623;1256;83391;-60
2023/03/12 10:30:17;;;;;;;5.00;1.30;;;;;;;7.52;69.60;100289.23;105657;1256;74065;-60
2023/03/12 10:32:49;;;;;;;3.40;1.50;;;;;;;7.45;68.93;100290.98;105627;1256;69202;-60
2023/03/12 10:35:21;;;;;;;4.90;1.50;;;;;;;7.33;68.46;100292.85;105700;1254;69066;-61
2023/03/12 10:37:52;;;;;;;3.90;1.70;;;;;;;7.40;68.39;100292.14;105707;1254;75012;-61
2023/03/12 10:40:23;;;;;;;4.30;1.50;;;;;;;7.08;67.97;100291.89;105410;1256;83561;-61
2023/03/12 10:42:51;;;;;;;3.20;0.90;;;;;;;6.68;66.97;100296.13;105666;1254;73788;-61
2023/03/12 10:45:25;;;;;;;4.90;1.20;;;;;;;6.27;66.66;100290.09;105581;1256;69165;-60
2023/03/12 10:47:57;;;;;;;4.30;1.20;;;;;;;6.12;66.78;100286.08;105589;1254;69395;-60
2023/03/12 10:50:27;;;;;;;3.00;0.90;;;;;;;6.47;67.36;100285.65;106878;1254;74872;-60
2023/03/12 10:53:21;;;;;;;3.00;0.80;;;;;;;7.05;67.80;100277.55;105686;1254;82472;-60
2023/03/12 10:56:02;;;;;;;3.30;1.00;;;;;;;7.89;68.24;100271.68;105747;1256;73727;-59
2023/03/12 10:58:39;;;;;;;2.10;1.10;;;;;;;8.30;67.05;100273.83;105774;1254;69026;-60
2023/03/12 11:01:28;;;;;;;2.60;1.10;;;;;;;8.40;66.38;100274.61;105597;1256;69248;-59
2023/03/12 11:04:20;;;;;;;3.00;1.10;;;;;;;8.64;66.09;100274.20;105707;1254;75459;-59
2023/03/12 11:07:13;;;;;;;3.30;1.00;;;;;;;8.90;65.95;100276.71;105560;1254;84384;-56
2023/03/12 11:09:41;;;;;;;3.60;1.60;;;;;;;9.10;65.56;100269.61;105574;1253;73914;-59
2023/03/12 11:12:23;;;;;;;3.80;1.30;;;;;;;9.08;65.52;100267.93;105541;1256;69265;-59
2023/03/12 11:14:52;;;;;;;3.70;1.40;;;;;;;8.94;64.67;100272.40;105510;1254;69062;-60
2023/03/12 11:17:25;;;;;;;4.90;1.20;;;;;;;8.79;64.19;100270.27;105558;1254;75044;-60
2023/03/12 11:19:54;;;;;;;2.40;0.90;;;;;;;8.55;63.78;100269.64;105720;1254;82929;-60
2023/03/12 11:22:31;;;;;;;4.20;1.90;;;;;;;8.29;63.75;100268.46;105548;1254;73936;-60
2023/03/12 11:25:03;;;;;;;5.60;1.20;;;;;;;8.14;64.01;100266.98;105498;1253;69123;-61
2023/03/12 11:27:42;;;;;;;4.10;1.50;;;;;;;7.95;63.33;100268.91;105559;1256;69660;-61
2023/03/12 11:30:14;;;;;;;5.10;1.50;;;;;;;7.72;63.58;100267.64;105518;1254;74889;-61
2023/03/12 11:32:46;;;;;;;6.20;2.10;;;;;;;7.54;63.89;100267.45;105657;1253;82875;-61
2023/03/12 11:35:28;;;;;;;10.70;6.10;;;;;;;7.38;63.78;100265.59;105480;1253;72724;-61
2023/03/12 11:38:01;;;;;;;3.10;1.30;;;;;;;7.36;64.21;100263.90;105405;1253;69054;-61
2023/03/12 11:40:32;;;;;;;4.20;1.10;;;;;;;7.34;64.45;100262.92;105350;1253;69188;-61